Terminal Aerodrome Forecast
Issued by NWS Detroit/Pontiac, MI

Home | Current Version | Previous Version | Text Only | Print | Product List | Glossary On
Versions: 1 2 3 4 5 6 7 8 9 10 11 12 13 14 15 16 17 18 19 20 21 22 23 24 25 26
586
FTUS43 KDTX 191741
TAFDTW
TAF
KDTW 191741Z 1918/2024 18006KT 1/2SM RA FG VV002 WS015/23040KT
     FM192300 20013KT 2SM -SHRA BR OVC006
     FM200100 22013G20KT 4SM -SHRA BR OVC015
     FM200800 20013KT 2SM RA BR OVC006=

USA.gov is the U.S. government's official web portal to all federal, state and local government web resources and services.